sensor_id;sensor_type;location;lat;lon;timestamp;temperature;humidity
13600;DHT22;6871;51.34740610;4.31323160;2023-05-17T00:00:11;18.30;82.10
13600;DHT22;6871;51.34740610;4.31323160;2023-05-17T00:02:40;18.30;82.00
13600;DHT22;6871;51.34740610;4.31323160;2023-05-17T00:05:10;18.30;82.00
13600;DHT22;6871;51.34740610;4.31323160;2023-05-17T00:07:39;18.30;82.10
13600;DHT22;6871;51.34740610;4.31323160;2023-05-17T00:10:09;18.30;82.30
13600;DHT22;6871;51.34740610;4.31323160;2023-05-17T00:12:38;18.30;82.30
13600;DHT22;6871;51.34740610;4.31323160;2023-05-17T00:15:09;18.30;82.10
13600;DHT22;6871;51.34740610;4.31323160;2023-05-17T00:17:38;18.30;81.90
13600;DHT22;6871;51.34740610;4.31323160;2023-05-17T00:20:09;18.30;82.00
13600;DHT22;6871;51.34740610;4.31323160;2023-05-17T00:22:40;18.30;82.10
13600;DHT22;6871;51.34740610;4.31323160;2023-05-17T00:25:10;18.30;82.20
13600;DHT22;6871;51.34740610;4.31323160;2023-05-17T00:27:40;18.20;82.30
13600;DHT22;6871;51.34740610;4.31323160;2023-05-17T00:30:10;18.20;82.10
13600;DHT22;6871;51.34740610;4.31323160;2023-05-17T00:32:39;18.30;82.20
13600;DHT22;6871;51.34740610;4.31323160;2023-05-17T00:35:08;18.30;82.10
13600;DHT22;6871;51.34740610;4.31323160;2023-05-17T00:37:37;18.20;81.90
13600;DHT22;6871;51.34740610;4.31323160;2023-05-17T00:40:09;18.20;82.10
13600;DHT22;6871;51.34740610;4.31323160;2023-05-17T00:42:39;18.20;82.30
13600;DHT22;6871;51.34740610;4.31323160;2023-05-17T00:45:09;18.20;82.10
13600;DHT22;6871;51.34740610;4.31323160;2023-05-17T00:47:39;18.20;82.00
13600;DHT22;6871;51.34740610;4.31323160;2023-05-17T00:50:10;18.20;82.00
13600;DHT22;6871;51.34740610;4.31323160;2023-05-17T00:52:39;18.20;81.90
13600;DHT22;6871;51.34740610;4.31323160;2023-05-17T00:55:09;18.20;82.00
13600;DHT22;6871;51.34740610;4.31323160;2023-05-17T00:57:39;18.20;82.10
13600;DHT22;6871;51.34740610;4.31323160;2023-05-17T01:00:10;18.20;82.30
13600;DHT22;6871;51.34740610;4.31323160;2023-05-17T01:02:39;18.20;82.00
13600;DHT22;6871;51.34740610;4.31323160;2023-05-17T01:05:10;18.20;81.90
13600;DHT22;6871;51.34740610;4.31323160;2023-05-17T01:07:40;18.20;81.90
13600;DHT22;6871;51.34740610;4.31323160;2023-05-17T01:10:10;18.20;81.90
13600;DHT22;6871;51.34740610;4.31323160;2023-05-17T01:12:52;18.20;82.00
13600;DHT22;6871;51.34740610;4.31323160;2023-05-17T01:15:23;18.20;82.20
13600;DHT22;6871;51.34740610;4.31323160;2023-05-17T01:17:56;18.20;82.00
13600;DHT22;6871;51.34740610;4.31323160;2023-05-17T01:20:28;18.10;81.90
13600;DHT22;6871;51.34740610;4.31323160;2023-05-17T01:23:09;18.10;81.80
13600;DHT22;6871;51.34740610;4.31323160;2023-05-17T01:25:48;18.10;81.90
13600;DHT22;6871;51.34740610;4.31323160;2023-05-17T01:28:18;18.10;82.00
13600;DHT22;6871;51.34740610;4.31323160;2023-05-17T01:30:50;18.10;82.10
13600;DHT22;6871;51.34740610;4.31323160;2023-05-17T01:33:21;18.10;82.00
13600;DHT22;6871;51.34740610;4.31323160;2023-05-17T01:35:51;18.10;81.90
13600;DHT22;6871;51.34740610;4.31323160;2023-05-17T01:38:20;18.10;81.90
13600;DHT22;6871;51.34740610;4.31323160;2023-05-17T01:40:53;18.10;81.70
13600;DHT22;6871;51.34740610;4.31323160;2023-05-17T01:43:25;18.10;81.80
13600;DHT22;6871;51.34740610;4.31323160;2023-05-17T01:46:02;18.10;81.90
13600;DHT22;6871;51.34740610;4.31323160;2023-05-17T01:48:34;18.10;81.90
13600;DHT22;6871;51.34740610;4.31323160;2023-05-17T01:51:05;18.10;81.70
13600;DHT22;6871;51.34740610;4.31323160;2023-05-17T01:53:38;18.00;81.60
13600;DHT22;6871;51.34740610;4.31323160;2023-05-17T01:56:11;18.00;81.60
13600;DHT22;6871;51.34740610;4.31323160;2023-05-17T01:58:43;18.00;81.70
13600;DHT22;6871;51.34740610;4.31323160;2023-05-17T02:01:14;18.00;81.80
13600;DHT22;6871;51.34740610;4.31323160;2023-05-17T02:03:47;18.00;81.80
13600;DHT22;6871;51.34740610;4.31323160;2023-05-17T02:06:17;18.00;81.80
13600;DHT22;6871;51.34740610;4.31323160;2023-05-17T02:08:46;18.00;81.70
13600;DHT22;6871;51.34740610;4.31323160;2023-05-17T02:11:15;18.00;81.60
13600;DHT22;6871;51.34740610;4.31323160;2023-05-17T02:14:03;18.00;81.50
13600;DHT22;6871;51.34740610;4.31323160;2023-05-17T02:16:33;18.00;81.70
13600;DHT22;6871;51.34740610;4.31323160;2023-05-17T02:19:02;18.00;81.70
13600;DHT22;6871;51.34740610;4.31323160;2023-05-17T02:21:31;18.00;81.70
13600;DHT22;6871;51.34740610;4.31323160;2023-05-17T02:24:00;18.00;81.60
13600;DHT22;6871;51.34740610;4.31323160;2023-05-17T02:26:30;18.00;81.70
13600;DHT22;6871;51.34740610;4.31323160;2023-05-17T02:29:00;18.00;81.60
13600;DHT22;6871;51.34740610;4.31323160;2023-05-17T02:31:29;18.00;81.60
13600;DHT22;6871;51.34740610;4.31323160;2023-05-17T02:33:58;18.00;81.60
13600;DHT22;6871;51.34740610;4.31323160;2023-05-17T02:36:28;18.00;81.60
13600;DHT22;6871;51.34740610;4.31323160;2023-05-17T02:38:57;18.00;81.50
13600;DHT22;6871;51.34740610;4.31323160;2023-05-17T02:41:26;18.00;81.50
13600;DHT22;6871;51.34740610;4.31323160;2023-05-17T02:43:56;17.90;81.50
13600;DHT22;6871;51.34740610;4.31323160;2023-05-17T02:46:25;18.00;81.30
13600;DHT22;6871;51.34740610;4.31323160;2023-05-17T02:48:54;18.00;81.50
13600;DHT22;6871;51.34740610;4.31323160;2023-05-17T02:51:23;17.90;81.50
13600;DHT22;6871;51.34740610;4.31323160;2023-05-17T02:53:53;17.90;81.30
13600;DHT22;6871;51.34740610;4.31323160;2023-05-17T02:56:22;17.90;81.30
13600;DHT22;6871;51.34740610;4.31323160;2023-05-17T02:58:51;17.90;81.50
13600;DHT22;6871;51.34740610;4.31323160;2023-05-17T03:01:22;17.90;81.30
13600;DHT22;6871;51.34740610;4.31323160;2023-05-17T03:03:51;17.90;81.30
13600;DHT22;6871;51.34740610;4.31323160;2023-05-17T03:06:20;17.90;81.50
13600;DHT22;6871;51.34740610;4.31323160;2023-05-17T03:08:50;17.90;81.30
13600;DHT22;6871;51.34740610;4.31323160;2023-05-17T03:11:20;17.90;81.30
13600;DHT22;6871;51.34740610;4.31323160;2023-05-17T03:13:49;17.90;81.30
13600;DHT22;6871;51.34740610;4.31323160;2023-05-17T03:16:18;17.90;81.30
13600;DHT22;6871;51.34740610;4.31323160;2023-05-17T03:18:48;17.90;81.30
13600;DHT22;6871;51.34740610;4.31323160;2023-05-17T03:21:17;17.90;81.30
13600;DHT22;6871;51.34740610;4.31323160;2023-05-17T03:23:46;17.90;81.30
13600;DHT22;6871;51.34740610;4.31323160;2023-05-17T03:26:16;17.80;81.30
13600;DHT22;6871;51.34740610;4.31323160;2023-05-17T03:28:46;17.80;81.20
13600;DHT22;6871;51.34740610;4.31323160;2023-05-17T03:31:18;17.80;81.30
13600;DHT22;6871;51.34740610;4.31323160;2023-05-17T03:33:48;17.90;81.30
13600;DHT22;6871;51.34740610;4.31323160;2023-05-17T03:36:17;17.80;81.20
13600;DHT22;6871;51.34740610;4.31323160;2023-05-17T03:38:46;17.90;81.30
13600;DHT22;6871;51.34740610;4.31323160;2023-05-17T03:41:16;17.80;81.30
13600;DHT22;6871;51.34740610;4.31323160;2023-05-17T03:43:45;17.80;81.30
13600;DHT22;6871;51.34740610;4.31323160;2023-05-17T03:46:14;17.80;81.30
13600;DHT22;6871;51.34740610;4.31323160;2023-05-17T03:48:44;17.80;81.30
13600;DHT22;6871;51.34740610;4.31323160;2023-05-17T03:51:13;17.80;81.40
13600;DHT22;6871;51.34740610;4.31323160;2023-05-17T03:53:43;17.80;81.30
13600;DHT22;6871;51.34740610;4.31323160;2023-05-17T03:56:12;17.80;81.40
13600;DHT22;6871;51.34740610;4.31323160;2023-05-17T03:58:42;17.80;81.50
13600;DHT22;6871;51.34740610;4.31323160;2023-05-17T04:01:12;17.80;81.40
13600;DHT22;6871;51.34740610;4.31323160;2023-05-17T04:03:41;17.80;81.30
13600;DHT22;6871;51.34740610;4.31323160;2023-05-17T04:06:11;17.80;81.30
13600;DHT22;6871;51.34740610;4.31323160;2023-05-17T04:08:41;17.80;82.10
13600;DHT22;6871;51.34740610;4.31323160;2023-05-17T04:11:10;17.80;81.50
13600;DHT22;6871;51.34740610;4.31323160;2023-05-17T04:13:40;17.80;81.50
13600;DHT22;6871;51.34740610;4.31323160;2023-05-17T04:16:10;17.80;81.50
13600;DHT22;6871;51.34740610;4.31323160;2023-05-17T04:18:39;17.80;81.50
13600;DHT22;6871;51.34740610;4.31323160;2023-05-17T04:21:08;17.80;81.50
13600;DHT22;6871;51.34740610;4.31323160;2023-05-17T04:23:37;17.80;81.60
13600;DHT22;6871;51.34740610;4.31323160;2023-05-17T04:26:07;17.80;81.60
13600;DHT22;6871;51.34740610;4.31323160;2023-05-17T04:28:37;17.70;81.60
13600;DHT22;6871;51.34740610;4.31323160;2023-05-17T04:31:08;17.70;81.60
13600;DHT22;6871;51.34740610;4.31323160;2023-05-17T04:33:37;17.70;81.60
13600;DHT22;6871;51.34740610;4.31323160;2023-05-17T04:36:08;17.70;81.60
13600;DHT22;6871;51.34740610;4.31323160;2023-05-17T04:38:38;17.70;81.60
13600;DHT22;6871;51.34740610;4.31323160;2023-05-17T04:41:07;17.70;82.40
13600;DHT22;6871;51.34740610;4.31323160;2023-05-17T04:43:36;17.70;81.60
13600;DHT22;6871;51.34740610;4.31323160;2023-05-17T04:46:06;17.70;81.70
13600;DHT22;6871;51.34740610;4.31323160;2023-05-17T04:48:35;17.70;81.70
13600;DHT22;6871;51.34740610;4.31323160;2023-05-17T04:51:05;17.70;81.70
13600;DHT22;6871;51.34740610;4.31323160;2023-05-17T04:53:35;17.70;81.70
13600;DHT22;6871;51.34740610;4.31323160;2023-05-17T04:56:04;17.70;81.70
13600;DHT22;6871;51.34740610;4.31323160;2023-05-17T04:58:34;17.70;81.70
13600;DHT22;6871;51.34740610;4.31323160;2023-05-17T05:01:03;17.70;81.70
13600;DHT22;6871;51.34740610;4.31323160;2023-05-17T05:03:33;17.70;81.80
13600;DHT22;6871;51.34740610;4.31323160;2023-05-17T05:06:04;17.70;81.80
13600;DHT22;6871;51.34740610;4.31323160;2023-05-17T05:08:34;17.70;81.90
13600;DHT22;6871;51.34740610;4.31323160;2023-05-17T05:11:04;17.70;81.90
13600;DHT22;6871;51.34740610;4.31323160;2023-05-17T05:13:33;17.70;82.00
13600;DHT22;6871;51.34740610;4.31323160;2023-05-17T05:16:06;17.70;81.90
13600;DHT22;6871;51.34740610;4.31323160;2023-05-17T05:18:35;17.70;82.00
13600;DHT22;6871;51.34740610;4.31323160;2023-05-17T05:21:05;17.70;82.00
13600;DHT22;6871;51.34740610;4.31323160;2023-05-17T05:23:34;17.70;82.10
13600;DHT22;6871;51.34740610;4.31323160;2023-05-17T05:26:04;17.70;82.10
13600;DHT22;6871;51.34740610;4.31323160;2023-05-17T05:28:33;17.70;82.10
13600;DHT22;6871;51.34740610;4.31323160;2023-05-17T05:31:02;17.70;82.10
13600;DHT22;6871;51.34740610;4.31323160;2023-05-17T05:33:33;17.70;82.10
13600;DHT22;6871;51.34740610;4.31323160;2023-05-17T05:36:03;17.70;82.10
13600;DHT22;6871;51.34740610;4.31323160;2023-05-17T05:38:32;17.70;82.10
13600;DHT22;6871;51.34740610;4.31323160;2023-05-17T05:41:02;17.70;82.20
13600;DHT22;6871;51.34740610;4.31323160;2023-05-17T05:43:31;17.70;82.30
13600;DHT22;6871;51.34740610;4.31323160;2023-05-17T05:46:02;17.60;82.40
13600;DHT22;6871;51.34740610;4.31323160;2023-05-17T05:48:32;17.60;82.30
13600;DHT22;6871;51.34740610;4.31323160;2023-05-17T05:51:01;17.70;82.40
13600;DHT22;6871;51.34740610;4.31323160;2023-05-17T05:53:30;17.70;82.70
13600;DHT22;6871;51.34740610;4.31323160;2023-05-17T05:56:00;17.60;82.60
13600;DHT22;6871;51.34740610;4.31323160;2023-05-17T05:58:30;17.60;82.50
13600;DHT22;6871;51.34740610;4.31323160;2023-05-17T06:00:59;17.70;82.50
13600;DHT22;6871;51.34740610;4.31323160;2023-05-17T06:03:28;17.70;82.50
13600;DHT22;6871;51.34740610;4.31323160;2023-05-17T06:05:58;17.70;82.50
13600;DHT22;6871;51.34740610;4.31323160;2023-05-17T06:08:27;17.70;82.50
13600;DHT22;6871;51.34740610;4.31323160;2023-05-17T06:10:56;17.70;82.50
13600;DHT22;6871;51.34740610;4.31323160;2023-05-17T06:13:26;17.70;82.40
13600;DHT22;6871;51.34740610;4.31323160;2023-05-17T06:15:55;17.70;82.80
13600;DHT22;6871;51.34740610;4.31323160;2023-05-17T06:18:24;17.70;82.70
13600;DHT22;6871;51.34740610;4.31323160;2023-05-17T06:20:54;17.70;82.60
13600;DHT22;6871;51.34740610;4.31323160;2023-05-17T06:23:23;17.70;83.40
13600;DHT22;6871;51.34740610;4.31323160;2023-05-17T06:25:53;17.70;82.60
13600;DHT22;6871;51.34740610;4.31323160;2023-05-17T06:28:23;17.70;82.50
13600;DHT22;6871;51.34740610;4.31323160;2023-05-17T06:30:53;17.70;82.60
13600;DHT22;6871;51.34740610;4.31323160;2023-05-17T06:33:22;17.70;82.60
13600;DHT22;6871;51.34740610;4.31323160;2023-05-17T06:35:51;17.70;82.70
13600;DHT22;6871;51.34740610;4.31323160;2023-05-17T06:38:20;17.70;82.70
13600;DHT22;6871;51.34740610;4.31323160;2023-05-17T06:40:52;17.70;82.90
13600;DHT22;6871;51.34740610;4.31323160;2023-05-17T06:43:21;17.70;83.00
13600;DHT22;6871;51.34740610;4.31323160;2023-05-17T06:45:51;17.70;83.00
13600;DHT22;6871;51.34740610;4.31323160;2023-05-17T06:48:20;17.70;83.00
13600;DHT22;6871;51.34740610;4.31323160;2023-05-17T06:50:49;17.70;83.00
13600;DHT22;6871;51.34740610;4.31323160;2023-05-17T06:53:19;17.70;82.90
13600;DHT22;6871;51.34740610;4.31323160;2023-05-17T06:55:48;17.70;83.00
13600;DHT22;6871;51.34740610;4.31323160;2023-05-17T06:58:17;17.70;83.30
13600;DHT22;6871;51.34740610;4.31323160;2023-05-17T07:00:46;17.70;83.40
13600;DHT22;6871;51.34740610;4.31323160;2023-05-17T07:03:16;17.70;83.40
13600;DHT22;6871;51.34740610;4.31323160;2023-05-17T07:05:45;17.70;83.20
13600;DHT22;6871;51.34740610;4.31323160;2023-05-17T07:08:15;17.70;83.20
13600;DHT22;6871;51.34740610;4.31323160;2023-05-17T07:10:44;17.70;83.10
13600;DHT22;6871;51.34740610;4.31323160;2023-05-17T07:13:13;17.70;84.00
13600;DHT22;6871;51.34740610;4.31323160;2023-05-17T07:15:42;17.70;83.30
13600;DHT22;6871;51.34740610;4.31323160;2023-05-17T07:18:12;17.70;83.50
13600;DHT22;6871;51.34740610;4.31323160;2023-05-17T07:20:41;17.70;83.40
13600;DHT22;6871;51.34740610;4.31323160;2023-05-17T07:23:10;17.70;83.30
13600;DHT22;6871;51.34740610;4.31323160;2023-05-17T07:25:39;17.70;83.10
13600;DHT22;6871;51.34740610;4.31323160;2023-05-17T07:28:09;17.70;83.10
13600;DHT22;6871;51.34740610;4.31323160;2023-05-17T07:30:39;17.70;83.00
13600;DHT22;6871;51.34740610;4.31323160;2023-05-17T07:33:08;17.70;83.40
13600;DHT22;6871;51.34740610;4.31323160;2023-05-17T07:35:38;17.70;83.80
13600;DHT22;6871;51.34740610;4.31323160;2023-05-17T07:38:07;17.70;83.50
13600;DHT22;6871;51.34740610;4.31323160;2023-05-17T07:40:38;17.70;83.20
13600;DHT22;6871;51.34740610;4.31323160;2023-05-17T07:43:07;17.80;83.00
13600;DHT22;6871;51.34740610;4.31323160;2023-05-17T07:45:36;17.70;82.80
13600;DHT22;6871;51.34740610;4.31323160;2023-05-17T07:48:06;17.80;82.90
13600;DHT22;6871;51.34740610;4.31323160;2023-05-17T07:50:36;17.80;82.90
13600;DHT22;6871;51.34740610;4.31323160;2023-05-17T07:53:05;17.90;82.80
13600;DHT22;6871;51.34740610;4.31323160;2023-05-17T07:55:34;17.90;82.80
13600;DHT22;6871;51.34740610;4.31323160;2023-05-17T07:58:04;17.80;82.80
13600;DHT22;6871;51.34740610;4.31323160;2023-05-17T08:00:33;17.80;82.60
13600;DHT22;6871;51.34740610;4.31323160;2023-05-17T08:03:02;17.90;82.60
13600;DHT22;6871;51.34740610;4.31323160;2023-05-17T08:05:32;17.90;82.60
13600;DHT22;6871;51.34740610;4.31323160;2023-05-17T08:08:01;17.90;82.60
13600;DHT22;6871;51.34740610;4.31323160;2023-05-17T08:10:31;17.90;82.70
13600;DHT22;6871;51.34740610;4.31323160;2023-05-17T08:13:00;17.90;82.60
13600;DHT22;6871;51.34740610;4.31323160;2023-05-17T08:15:30;17.90;82.60
13600;DHT22;6871;51.34740610;4.31323160;2023-05-17T08:17:59;18.00;82.80
13600;DHT22;6871;51.34740610;4.31323160;2023-05-17T08:20:29;18.00;82.70
13600;DHT22;6871;51.34740610;4.31323160;2023-05-17T08:22:58;18.00;82.70
13600;DHT22;6871;51.34740610;4.31323160;2023-05-17T08:25:27;18.00;82.50
13600;DHT22;6871;51.34740610;4.31323160;2023-05-17T08:27:57;18.00;82.40
13600;DHT22;6871;51.34740610;4.31323160;2023-05-17T08:30:26;18.00;82.40
13600;DHT22;6871;51.34740610;4.31323160;2023-05-17T08:32:55;18.10;82.40
13600;DHT22;6871;51.34740610;4.31323160;2023-05-17T08:35:25;18.00;82.30
13600;DHT22;6871;51.34740610;4.31323160;2023-05-17T08:37:54;18.10;82.30
13600;DHT22;6871;51.34740610;4.31323160;2023-05-17T08:40:23;18.10;82.30
13600;DHT22;6871;51.34740610;4.31323160;2023-05-17T08:42:53;18.10;82.10
13600;DHT22;6871;51.34740610;4.31323160;2023-05-17T08:45:22;18.10;82.10
13600;DHT22;6871;51.34740610;4.31323160;2023-05-17T08:47:52;18.10;82.00
13600;DHT22;6871;51.34740610;4.31323160;2023-05-17T08:50:22;18.10;82.10
13600;DHT22;6871;51.34740610;4.31323160;2023-05-17T08:52:51;18.20;82.00
13600;DHT22;6871;51.34740610;4.31323160;2023-05-17T08:55:21;18.20;82.00
13600;DHT22;6871;51.34740610;4.31323160;2023-05-17T08:57:52;18.20;82.00
13600;DHT22;6871;51.34740610;4.31323160;2023-05-17T09:00:23;18.20;82.00
13600;DHT22;6871;51.34740610;4.31323160;2023-05-17T09:02:54;18.20;82.00
13600;DHT22;6871;51.34740610;4.31323160;2023-05-17T09:05:23;18.20;82.00
13600;DHT22;6871;51.34740610;4.31323160;2023-05-17T09:07:54;18.20;81.80
13600;DHT22;6871;51.34740610;4.31323160;2023-05-17T09:10:24;18.30;82.20
13600;DHT22;6871;51.34740610;4.31323160;2023-05-17T09:12:53;18.30;81.90
13600;DHT22;6871;51.34740610;4.31323160;2023-05-17T09:15:24;18.40;81.60
13600;DHT22;6871;51.34740610;4.31323160;2023-05-17T09:17:56;18.40;81.70
13600;DHT22;6871;51.34740610;4.31323160;2023-05-17T09:20:27;18.50;81.80
13600;DHT22;6871;51.34740610;4.31323160;2023-05-17T09:22:59;18.50;81.70
13600;DHT22;6871;51.34740610;4.31323160;2023-05-17T09:25:30;18.50;81.70
13600;DHT22;6871;51.34740610;4.31323160;2023-05-17T09:28:02;18.60;81.70
13600;DHT22;6871;51.34740610;4.31323160;2023-05-17T09:30:33;18.60;81.70
13600;DHT22;6871;51.34740610;4.31323160;2023-05-17T09:33:06;18.60;82.30
13600;DHT22;6871;51.34740610;4.31323160;2023-05-17T09:35:37;18.60;81.30
13600;DHT22;6871;51.34740610;4.31323160;2023-05-17T09:38:11;18.60;81.30
13600;DHT22;6871;51.34740610;4.31323160;2023-05-17T09:40:55;18.60;81.30
13600;DHT22;6871;51.34740610;4.31323160;2023-05-17T09:43:43;18.70;81.10
13600;DHT22;6871;51.34740610;4.31323160;2023-05-17T09:46:13;18.70;81.20
13600;DHT22;6871;51.34740610;4.31323160;2023-05-17T09:48:49;18.70;81.10
13600;DHT22;6871;51.34740610;4.31323160;2023-05-17T09:51:20;18.60;80.50
13600;DHT22;6871;51.34740610;4.31323160;2023-05-17T09:53:56;18.60;81.00
13600;DHT22;6871;51.34740610;4.31323160;2023-05-17T09:56:28;18.60;81.10
13600;DHT22;6871;51.34740610;4.31323160;2023-05-17T09:58:58;18.70;81.30
13600;DHT22;6871;51.34740610;4.31323160;2023-05-17T10:01:30;18.70;82.00
13600;DHT22;6871;51.34740610;4.31323160;2023-05-17T10:04:00;18.80;81.40
13600;DHT22;6871;51.34740610;4.31323160;2023-05-17T10:06:33;18.90;81.40
13600;DHT22;6871;51.34740610;4.31323160;2023-05-17T10:09:09;18.90;81.50
13600;DHT22;6871;51.34740610;4.31323160;2023-05-17T10:11:41;18.80;81.40
13600;DHT22;6871;51.34740610;4.31323160;2023-05-17T10:58:27;19.10;83.30
13600;DHT22;6871;51.34740610;4.31323160;2023-05-17T11:00:56;19.10;83.60
13600;DHT22;6871;51.34740610;4.31323160;2023-05-17T11:03:28;19.20;84.00
13600;DHT22;6871;51.34740610;4.31323160;2023-05-17T11:09:21;19.20;83.90
13600;DHT22;6871;51.34740610;4.31323160;2023-05-17T11:12:09;19.30;84.00
13600;DHT22;6871;51.34740610;4.31323160;2023-05-17T11:14:51;19.30;84.10
13600;DHT22;6871;51.34740610;4.31323160;2023-05-17T11:17:23;19.30;84.10
13600;DHT22;6871;51.34740610;4.31323160;2023-05-17T11:20:04;19.30;83.90
13600;DHT22;6871;51.34740610;4.31323160;2023-05-17T11:22:38;19.30;83.90
13600;DHT22;6871;51.34740610;4.31323160;2023-05-17T11:25:11;19.40;83.80
13600;DHT22;6871;51.34740610;4.31323160;2023-05-17T11:30:32;19.40;83.50
13600;DHT22;6871;51.34740610;4.31323160;2023-05-17T11:33:04;19.40;83.50
13600;DHT22;6871;51.34740610;4.31323160;2023-05-17T11:35:34;19.40;83.50
13600;DHT22;6871;51.34740610;4.31323160;2023-05-17T11:38:15;19.40;83.30
13600;DHT22;6871;51.34740610;4.31323160;2023-05-17T11:40:47;19.50;83.30
13600;DHT22;6871;51.34740610;4.31323160;2023-05-17T11:43:18;19.50;83.20
13600;DHT22;6871;51.34740610;4.31323160;2023-05-17T11:45:49;19.50;83.30
13600;DHT22;6871;51.34740610;4.31323160;2023-05-17T11:48:22;19.50;83.00
13600;DHT22;6871;51.34740610;4.31323160;2023-05-17T11:50:53;19.50;83.20
13600;DHT22;6871;51.34740610;4.31323160;2023-05-17T11:53:24;19.50;83.20
13600;DHT22;6871;51.34740610;4.31323160;2023-05-17T11:55:56;19.50;83.30
13600;DHT22;6871;51.34740610;4.31323160;2023-05-17T11:58:26;19.50;83.30
13600;DHT22;6871;51.34740610;4.31323160;2023-05-17T12:00:57;19.50;83.20
13600;DHT22;6871;51.34740610;4.31323160;2023-05-17T12:03:28;19.50;83.20
13600;DHT22;6871;51.34740610;4.31323160;2023-05-17T12:06:07;19.50;83.00
13600;DHT22;6871;51.34740610;4.31323160;2023-05-17T12:08:39;19.50;83.80
13600;DHT22;6871;51.34740610;4.31323160;2023-05-17T12:11:13;19.50;82.60
13600;DHT22;6871;51.34740610;4.31323160;2023-05-17T12:13:48;19.50;82.90
13600;DHT22;6871;51.34740610;4.31323160;2023-05-17T12:16:21;19.50;82.70
13600;DHT22;6871;51.34740610;4.31323160;2023-05-17T12:18:51;19.50;82.80
13600;DHT22;6871;51.34740610;4.31323160;2023-05-17T12:21:20;19.50;82.90
13600;DHT22;6871;51.34740610;4.31323160;2023-05-17T12:24:07;19.50;82.80
13600;DHT22;6871;51.34740610;4.31323160;2023-05-17T12:26:43;19.50;82.80
13600;DHT22;6871;51.34740610;4.31323160;2023-05-17T12:29:18;19.50;82.50
13600;DHT22;6871;51.34740610;4.31323160;2023-05-17T12:31:57;19.40;82.50
13600;DHT22;6871;51.34740610;4.31323160;2023-05-17T12:34:28;19.40;82.90
13600;DHT22;6871;51.34740610;4.31323160;2023-05-17T12:36:59;19.50;82.80
13600;DHT22;6871;51.34740610;4.31323160;2023-05-17T12:39:40;19.40;82.20
13600;DHT22;6871;51.34740610;4.31323160;2023-05-17T12:42:12;19.40;82.60
13600;DHT22;6871;51.34740610;4.31323160;2023-05-17T12:44:54;19.40;83.20
13600;DHT22;6871;51.34740610;4.31323160;2023-05-17T12:47:26;19.40;83.40
13600;DHT22;6871;51.34740610;4.31323160;2023-05-17T12:49:56;19.40;83.20
13600;DHT22;6871;51.34740610;4.31323160;2023-05-17T12:52:34;19.50;83.20
13600;DHT22;6871;51.34740610;4.31323160;2023-05-17T12:55:04;19.50;83.20
13600;DHT22;6871;51.34740610;4.31323160;2023-05-17T12:57:34;19.50;83.00
13600;DHT22;6871;51.34740610;4.31323160;2023-05-17T13:00:16;19.50;82.90
13600;DHT22;6871;51.34740610;4.31323160;2023-05-17T13:02:47;19.40;81.80
13600;DHT22;6871;51.34740610;4.31323160;2023-05-17T13:05:17;19.50;82.20
13600;DHT22;6871;51.34740610;4.31323160;2023-05-17T13:07:50;19.40;81.70
13600;DHT22;6871;51.34740610;4.31323160;2023-05-17T13:10:23;19.40;80.60
13600;DHT22;6871;51.34740610;4.31323160;2023-05-17T13:13:04;19.40;79.90
13600;DHT22;6871;51.34740610;4.31323160;2023-05-17T13:15:33;19.40;80.00
13600;DHT22;6871;51.34740610;4.31323160;2023-05-17T13:18:11;19.40;80.60
13600;DHT22;6871;51.34740610;4.31323160;2023-05-17T13:20:42;19.40;79.60
13600;DHT22;6871;51.34740610;4.31323160;2023-05-17T13:23:11;19.40;79.90
13600;DHT22;6871;51.34740610;4.31323160;2023-05-17T13:25:40;19.40;79.00
13600;DHT22;6871;51.34740610;4.31323160;2023-05-17T13:28:15;19.40;78.40
13600;DHT22;6871;51.34740610;4.31323160;2023-05-17T13:30:54;19.40;78.20
13600;DHT22;6871;51.34740610;4.31323160;2023-05-17T13:33:25;19.40;77.40
13600;DHT22;6871;51.34740610;4.31323160;2023-05-17T13:35:54;19.40;77.50
13600;DHT22;6871;51.34740610;4.31323160;2023-05-17T13:38:23;19.40;77.50
13600;DHT22;6871;51.34740610;4.31323160;2023-05-17T13:44:08;19.40;78.70
13600;DHT22;6871;51.34740610;4.31323160;2023-05-17T13:46:38;19.40;78.60
13600;DHT22;6871;51.34740610;4.31323160;2023-05-17T13:49:13;19.40;79.10
13600;DHT22;6871;51.34740610;4.31323160;2023-05-17T13:51:42;19.50;79.10
13600;DHT22;6871;51.34740610;4.31323160;2023-05-17T13:54:13;19.50;79.20
13600;DHT22;6871;51.34740610;4.31323160;2023-05-17T13:56:44;19.50;79.50
13600;DHT22;6871;51.34740610;4.31323160;2023-05-17T13:59:14;19.50;79.50
13600;DHT22;6871;51.34740610;4.31323160;2023-05-17T14:01:43;19.50;80.00
13600;DHT22;6871;51.34740610;4.31323160;2023-05-17T14:04:13;19.50;79.40
13600;DHT22;6871;51.34740610;4.31323160;2023-05-17T14:06:43;19.50;79.80
13600;DHT22;6871;51.34740610;4.31323160;2023-05-17T14:09:13;19.50;79.70
13600;DHT22;6871;51.34740610;4.31323160;2023-05-17T14:11:43;19.50;79.20
13600;DHT22;6871;51.34740610;4.31323160;2023-05-17T14:14:30;19.50;79.80
13600;DHT22;6871;51.34740610;4.31323160;2023-05-17T14:17:10;19.50;80.10
13600;DHT22;6871;51.34740610;4.31323160;2023-05-17T14:19:40;19.50;80.20
13600;DHT22;6871;51.34740610;4.31323160;2023-05-17T14:22:11;19.50;79.90
13600;DHT22;6871;51.34740610;4.31323160;2023-05-17T14:24:40;19.50;80.00
13600;DHT22;6871;51.34740610;4.31323160;2023-05-17T14:27:10;19.40;79.90
13600;DHT22;6871;51.34740610;4.31323160;2023-05-17T14:29:44;19.50;79.80
13600;DHT22;6871;51.34740610;4.31323160;2023-05-17T14:32:13;19.50;79.90
13600;DHT22;6871;51.34740610;4.31323160;2023-05-17T14:34:42;19.50;80.00
13600;DHT22;6871;51.34740610;4.31323160;2023-05-17T14:37:12;19.50;79.90
13600;DHT22;6871;51.34740610;4.31323160;2023-05-17T14:39:42;19.50;79.80
13600;DHT22;6871;51.34740610;4.31323160;2023-05-17T14:42:14;19.50;79.80
13600;DHT22;6871;51.34740610;4.31323160;2023-05-17T14:44:48;19.50;79.20
13600;DHT22;6871;51.34740610;4.31323160;2023-05-17T14:47:17;19.50;79.60